sensor_id;sensor_type;location;lat;lon;timestamp;P1;durP1;ratioP1;P2;durP2;ratioP2
21492;SDS011;10908;50.690;4.400;2023-02-28T00:00:46;9.65;;;4.72;;
21492;SDS011;10908;50.690;4.400;2023-02-28T00:03:11;15.35;;;5.22;;
21492;SDS011;10908;50.690;4.400;2023-02-28T00:05:37;11.95;;;4.93;;
21492;SDS011;10908;50.690;4.400;2023-02-28T00:08:03;8.15;;;4.70;;
21492;SDS011;10908;50.690;4.400;2023-02-28T00:10:29;13.65;;;5.25;;
21492;SDS011;10908;50.690;4.400;2023-02-28T00:12:59;10.00;;;5.20;;
21492;SDS011;10908;50.690;4.400;2023-02-28T00:15:26;9.65;;;4.65;;
21492;SDS011;10908;50.690;4.400;2023-02-28T00:17:52;12.27;;;4.88;;
21492;SDS011;10908;50.690;4.400;2023-02-28T00:20:18;10.70;;;5.13;;
21492;SDS011;10908;50.690;4.400;2023-02-28T00:22:45;10.63;;;4.55;;
21492;SDS011;10908;50.690;4.400;2023-02-28T00:25:13;11.65;;;5.15;;
21492;SDS011;10908;50.690;4.400;2023-02-28T00:27:41;9.20;;;4.75;;
21492;SDS011;10908;50.690;4.400;2023-02-28T00:30:10;9.73;;;5.03;;
21492;SDS011;10908;50.690;4.400;2023-02-28T00:32:37;9.48;;;4.72;;
21492;SDS011;10908;50.690;4.400;2023-02-28T00:35:03;11.80;;;5.05;;
21492;SDS011;10908;50.690;4.400;2023-02-28T00:37:29;9.95;;;5.20;;
21492;SDS011;10908;50.690;4.400;2023-02-28T00:39:55;11.32;;;5.15;;
21492;SDS011;10908;50.690;4.400;2023-02-28T00:42:21;9.48;;;4.57;;
21492;SDS011;10908;50.690;4.400;2023-02-28T00:44:46;10.93;;;4.95;;
21492;SDS011;10908;50.690;4.400;2023-02-28T00:47:12;10.25;;;5.15;;
21492;SDS011;10908;50.690;4.400;2023-02-28T00:49:37;12.18;;;5.63;;
21492;SDS011;10908;50.690;4.400;2023-02-28T00:52:03;9.55;;;5.22;;
21492;SDS011;10908;50.690;4.400;2023-02-28T00:54:29;10.25;;;5.15;;
21492;SDS011;10908;50.690;4.400;2023-02-28T00:56:54;10.50;;;4.80;;
21492;SDS011;10908;50.690;4.400;2023-02-28T00:59:20;10.73;;;5.53;;
21492;SDS011;10908;50.690;4.400;2023-02-28T01:01:46;11.63;;;5.40;;
21492;SDS011;10908;50.690;4.400;2023-02-28T01:04:12;9.63;;;4.50;;
21492;SDS011;10908;50.690;4.400;2023-02-28T01:06:39;10.48;;;5.45;;
21492;SDS011;10908;50.690;4.400;2023-02-28T01:09:05;10.73;;;5.10;;
21492;SDS011;10908;50.690;4.400;2023-02-28T01:11:32;11.70;;;5.25;;
21492;SDS011;10908;50.690;4.400;2023-02-28T01:13:58;14.52;;;5.30;;
21492;SDS011;10908;50.690;4.400;2023-02-28T01:16:24;9.40;;;5.30;;
21492;SDS011;10908;50.690;4.400;2023-02-28T01:18:50;10.90;;;5.55;;
21492;SDS011;10908;50.690;4.400;2023-02-28T01:21:17;10.38;;;5.57;;
21492;SDS011;10908;50.690;4.400;2023-02-28T01:23:44;11.55;;;5.40;;
21492;SDS011;10908;50.690;4.400;2023-02-28T01:26:15;10.18;;;4.95;;
21492;SDS011;10908;50.690;4.400;2023-02-28T01:28:45;12.68;;;5.13;;
21492;SDS011;10908;50.690;4.400;2023-02-28T01:31:12;11.50;;;5.28;;
21492;SDS011;10908;50.690;4.400;2023-02-28T01:33:38;11.25;;;5.35;;
21492;SDS011;10908;50.690;4.400;2023-02-28T01:36:11;13.25;;;5.75;;
21492;SDS011;10908;50.690;4.400;2023-02-28T01:38:42;10.45;;;5.40;;
21492;SDS011;10908;50.690;4.400;2023-02-28T01:41:08;10.35;;;5.20;;
21492;SDS011;10908;50.690;4.400;2023-02-28T01:43:52;12.50;;;5.40;;
21492;SDS011;10908;50.690;4.400;2023-02-28T01:46:20;10.73;;;5.38;;
21492;SDS011;10908;50.690;4.400;2023-02-28T01:48:49;12.07;;;5.25;;
21492;SDS011;10908;50.690;4.400;2023-02-28T01:51:30;11.57;;;5.07;;
21492;SDS011;10908;50.690;4.400;2023-02-28T01:54:24;11.38;;;5.10;;
21492;SDS011;10908;50.690;4.400;2023-02-28T01:56:53;11.40;;;4.88;;
21492;SDS011;10908;50.690;4.400;2023-02-28T01:59:29;11.80;;;5.30;;
21492;SDS011;10908;50.690;4.400;2023-02-28T02:01:57;9.35;;;4.93;;
21492;SDS011;10908;50.690;4.400;2023-02-28T02:04:23;10.30;;;5.38;;
21492;SDS011;10908;50.690;4.400;2023-02-28T02:06:52;11.23;;;5.35;;
21492;SDS011;10908;50.690;4.400;2023-02-28T02:09:18;11.32;;;5.18;;
21492;SDS011;10908;50.690;4.400;2023-02-28T02:11:44;12.20;;;5.68;;
21492;SDS011;10908;50.690;4.400;2023-02-28T02:26:40;11.98;;;5.22;;
21492;SDS011;10908;50.690;4.400;2023-02-28T02:29:06;11.55;;;5.40;;
21492;SDS011;10908;50.690;4.400;2023-02-28T02:40:23;13.80;;;5.35;;
21492;SDS011;10908;50.690;4.400;2023-02-28T02:43:31;14.25;;;5.50;;
21492;SDS011;10908;50.690;4.400;2023-02-28T02:45:54;9.73;;;5.18;;
21492;SDS011;10908;50.690;4.400;2023-02-28T02:48:28;11.05;;;5.47;;
21492;SDS011;10908;50.690;4.400;2023-02-28T02:50:59;13.70;;;5.68;;
21492;SDS011;10908;50.690;4.400;2023-02-28T02:53:37;10.10;;;5.35;;
21492;SDS011;10908;50.690;4.400;2023-02-28T02:56:09;13.15;;;5.40;;
21492;SDS011;10908;50.690;4.400;2023-02-28T02:58:36;13.68;;;5.50;;
21492;SDS011;10908;50.690;4.400;2023-02-28T03:01:07;15.13;;;5.45;;
21492;SDS011;10908;50.690;4.400;2023-02-28T03:03:39;10.10;;;5.18;;
21492;SDS011;10908;50.690;4.400;2023-02-28T03:06:05;11.10;;;5.47;;
21492;SDS011;10908;50.690;4.400;2023-02-28T03:08:34;10.45;;;5.53;;
21492;SDS011;10908;50.690;4.400;2023-02-28T03:11:03;14.75;;;5.90;;
21492;SDS011;10908;50.690;4.400;2023-02-28T03:19:41;10.55;;;5.40;;
21492;SDS011;10908;50.690;4.400;2023-02-28T03:27:40;15.70;;;6.20;;
21492;SDS011;10908;50.690;4.400;2023-02-28T03:30:23;14.98;;;6.25;;
21492;SDS011;10908;50.690;4.400;2023-02-28T03:32:59;9.98;;;5.90;;
21492;SDS011;10908;50.690;4.400;2023-02-28T03:35:33;15.48;;;6.20;;
21492;SDS011;10908;50.690;4.400;2023-02-28T03:38:33;13.43;;;5.97;;
21492;SDS011;10908;50.690;4.400;2023-02-28T03:41:13;16.85;;;6.72;;
21492;SDS011;10908;50.690;4.400;2023-02-28T03:43:45;11.18;;;5.53;;
21492;SDS011;10908;50.690;4.400;2023-02-28T03:46:21;14.88;;;5.90;;
21492;SDS011;10908;50.690;4.400;2023-02-28T03:51:47;14.13;;;6.55;;
21492;SDS011;10908;50.690;4.400;2023-02-28T03:54:17;13.48;;;6.78;;
21492;SDS011;10908;50.690;4.400;2023-02-28T03:57:07;14.02;;;6.82;;
21492;SDS011;10908;50.690;4.400;2023-02-28T03:59:45;13.65;;;7.00;;
21492;SDS011;10908;50.690;4.400;2023-02-28T04:02:18;13.65;;;6.93;;
21492;SDS011;10908;50.690;4.400;2023-02-28T04:04:43;15.60;;;6.78;;
21492;SDS011;10908;50.690;4.400;2023-02-28T04:07:13;13.82;;;6.22;;
21492;SDS011;10908;50.690;4.400;2023-02-28T04:09:40;13.65;;;6.88;;
21492;SDS011;10908;50.690;4.400;2023-02-28T04:12:06;15.35;;;6.80;;
21492;SDS011;10908;50.690;4.400;2023-02-28T04:14:31;14.60;;;6.60;;
21492;SDS011;10908;50.690;4.400;2023-02-28T04:16:57;13.77;;;6.82;;
21492;SDS011;10908;50.690;4.400;2023-02-28T04:19:23;13.52;;;7.03;;
21492;SDS011;10908;50.690;4.400;2023-02-28T04:21:49;14.18;;;6.90;;
21492;SDS011;10908;50.690;4.400;2023-02-28T04:24:17;12.57;;;6.50;;
21492;SDS011;10908;50.690;4.400;2023-02-28T04:26:48;15.18;;;7.00;;
21492;SDS011;10908;50.690;4.400;2023-02-28T04:29:20;13.75;;;6.78;;
21492;SDS011;10908;50.690;4.400;2023-02-28T04:31:48;15.45;;;6.88;;
21492;SDS011;10908;50.690;4.400;2023-02-28T04:34:13;13.57;;;7.00;;
21492;SDS011;10908;50.690;4.400;2023-02-28T04:36:40;13.75;;;7.18;;
21492;SDS011;10908;50.690;4.400;2023-02-28T04:39:05;15.02;;;7.53;;
21492;SDS011;10908;50.690;4.400;2023-02-28T04:41:31;13.77;;;7.40;;
21492;SDS011;10908;50.690;4.400;2023-02-28T04:43:57;14.38;;;7.40;;
21492;SDS011;10908;50.690;4.400;2023-02-28T04:46:23;16.45;;;8.05;;
21492;SDS011;10908;50.690;4.400;2023-02-28T04:48:49;14.45;;;6.82;;
21492;SDS011;10908;50.690;4.400;2023-02-28T04:51:15;15.13;;;7.60;;
21492;SDS011;10908;50.690;4.400;2023-02-28T04:53:42;14.63;;;7.65;;
21492;SDS011;10908;50.690;4.400;2023-02-28T04:56:09;14.98;;;6.95;;
21492;SDS011;10908;50.690;4.400;2023-02-28T04:58:40;13.13;;;7.10;;
21492;SDS011;10908;50.690;4.400;2023-02-28T05:01:07;11.07;;;6.80;;
21492;SDS011;10908;50.690;4.400;2023-02-28T05:03:50;14.88;;;7.25;;
21492;SDS011;10908;50.690;4.400;2023-02-28T05:06:17;13.15;;;7.03;;
21492;SDS011;10908;50.690;4.400;2023-02-28T05:08:43;14.85;;;7.35;;
21492;SDS011;10908;50.690;4.400;2023-02-28T05:11:17;15.15;;;7.53;;
21492;SDS011;10908;50.690;4.400;2023-02-28T05:13:47;12.82;;;7.20;;
21492;SDS011;10908;50.690;4.400;2023-02-28T05:16:14;13.70;;;7.32;;
21492;SDS011;10908;50.690;4.400;2023-02-28T05:18:40;13.60;;;7.05;;
21492;SDS011;10908;50.690;4.400;2023-02-28T05:21:06;15.07;;;7.68;;
21492;SDS011;10908;50.690;4.400;2023-02-28T05:23:43;12.93;;;7.38;;
21492;SDS011;10908;50.690;4.400;2023-02-28T05:26:09;15.80;;;7.72;;
21492;SDS011;10908;50.690;4.400;2023-02-28T05:28:35;14.38;;;7.03;;
21492;SDS011;10908;50.690;4.400;2023-02-28T05:31:00;15.50;;;7.85;;
21492;SDS011;10908;50.690;4.400;2023-02-28T05:33:26;16.90;;;7.45;;
21492;SDS011;10908;50.690;4.400;2023-02-28T05:35:51;14.30;;;7.38;;
21492;SDS011;10908;50.690;4.400;2023-02-28T05:38:17;13.45;;;7.47;;
21492;SDS011;10908;50.690;4.400;2023-02-28T05:40:42;14.95;;;7.70;;
21492;SDS011;10908;50.690;4.400;2023-02-28T05:43:09;15.98;;;7.53;;
21492;SDS011;10908;50.690;4.400;2023-02-28T05:45:36;15.75;;;7.93;;
21492;SDS011;10908;50.690;4.400;2023-02-28T05:48:02;14.32;;;7.80;;
21492;SDS011;10908;50.690;4.400;2023-02-28T05:50:28;16.27;;;8.02;;
21492;SDS011;10908;50.690;4.400;2023-02-28T05:52:53;15.48;;;8.60;;
21492;SDS011;10908;50.690;4.400;2023-02-28T05:55:19;15.70;;;8.20;;
21492;SDS011;10908;50.690;4.400;2023-02-28T05:57:45;14.50;;;7.93;;
21492;SDS011;10908;50.690;4.400;2023-02-28T06:00:11;16.83;;;8.85;;
21492;SDS011;10908;50.690;4.400;2023-02-28T06:02:39;16.50;;;8.90;;
21492;SDS011;10908;50.690;4.400;2023-02-28T06:05:06;13.50;;;8.43;;
21492;SDS011;10908;50.690;4.400;2023-02-28T06:07:38;17.23;;;8.00;;
21492;SDS011;10908;50.690;4.400;2023-02-28T06:10:04;15.18;;;8.40;;
21492;SDS011;10908;50.690;4.400;2023-02-28T06:12:30;16.05;;;8.02;;
21492;SDS011;10908;50.690;4.400;2023-02-28T06:14:55;15.20;;;7.88;;
21492;SDS011;10908;50.690;4.400;2023-02-28T06:17:21;18.77;;;9.23;;
21492;SDS011;10908;50.690;4.400;2023-02-28T06:19:46;18.42;;;8.60;;
21492;SDS011;10908;50.690;4.400;2023-02-28T06:22:13;14.25;;;8.35;;
21492;SDS011;10908;50.690;4.400;2023-02-28T06:24:38;17.25;;;8.52;;
21492;SDS011;10908;50.690;4.400;2023-02-28T06:27:04;19.08;;;9.95;;
21492;SDS011;10908;50.690;4.400;2023-02-28T06:29:33;17.67;;;9.50;;
21492;SDS011;10908;50.690;4.400;2023-02-28T06:32:00;19.45;;;10.40;;
21492;SDS011;10908;50.690;4.400;2023-02-28T06:34:26;18.58;;;9.40;;
21492;SDS011;10908;50.690;4.400;2023-02-28T06:36:51;20.08;;;10.10;;
21492;SDS011;10908;50.690;4.400;2023-02-28T06:39:17;19.77;;;10.30;;
21492;SDS011;10908;50.690;4.400;2023-02-28T06:41:43;21.17;;;10.93;;
21492;SDS011;10908;50.690;4.400;2023-02-28T06:44:14;22.35;;;11.23;;
21492;SDS011;10908;50.690;4.400;2023-02-28T06:46:41;17.83;;;10.52;;
21492;SDS011;10908;50.690;4.400;2023-02-28T06:49:08;17.23;;;10.13;;
21492;SDS011;10908;50.690;4.400;2023-02-28T06:51:35;19.95;;;9.45;;
21492;SDS011;10908;50.690;4.400;2023-02-28T06:54:02;18.20;;;9.30;;
21492;SDS011;10908;50.690;4.400;2023-02-28T06:56:28;17.52;;;9.73;;
21492;SDS011;10908;50.690;4.400;2023-02-28T06:58:54;15.60;;;9.32;;
21492;SDS011;10908;50.690;4.400;2023-02-28T07:01:21;15.93;;;9.13;;
21492;SDS011;10908;50.690;4.400;2023-02-28T07:03:50;16.35;;;9.10;;
21492;SDS011;10908;50.690;4.400;2023-02-28T07:06:20;16.63;;;8.95;;
21492;SDS011;10908;50.690;4.400;2023-02-28T07:08:50;15.25;;;9.13;;
21492;SDS011;10908;50.690;4.400;2023-02-28T07:11:17;16.75;;;9.07;;
21492;SDS011;10908;50.690;4.400;2023-02-28T07:13:44;15.10;;;8.95;;
21492;SDS011;10908;50.690;4.400;2023-02-28T07:16:09;15.82;;;8.65;;
21492;SDS011;10908;50.690;4.400;2023-02-28T07:18:36;15.25;;;8.05;;
21492;SDS011;10908;50.690;4.400;2023-02-28T07:21:03;13.77;;;8.13;;
21492;SDS011;10908;50.690;4.400;2023-02-28T07:23:30;16.95;;;7.63;;
21492;SDS011;10908;50.690;4.400;2023-02-28T07:25:56;15.43;;;7.50;;
21492;SDS011;10908;50.690;4.400;2023-02-28T07:28:22;14.73;;;7.22;;
21492;SDS011;10908;50.690;4.400;2023-02-28T07:30:47;12.55;;;6.68;;
21492;SDS011;10908;50.690;4.400;2023-02-28T07:33:13;17.30;;;6.88;;
21492;SDS011;10908;50.690;4.400;2023-02-28T07:35:39;14.77;;;6.20;;
21492;SDS011;10908;50.690;4.400;2023-02-28T07:38:05;10.93;;;6.15;;
21492;SDS011;10908;50.690;4.400;2023-02-28T07:40:32;11.38;;;5.70;;
21492;SDS011;10908;50.690;4.400;2023-02-28T07:42:59;11.82;;;5.60;;
21492;SDS011;10908;50.690;4.400;2023-02-28T07:45:25;12.07;;;6.00;;
21492;SDS011;10908;50.690;4.400;2023-02-28T07:47:51;9.80;;;5.10;;
21492;SDS011;10908;50.690;4.400;2023-02-28T07:50:17;9.75;;;5.28;;
21492;SDS011;10908;50.690;4.400;2023-02-28T07:52:43;10.73;;;5.03;;
21492;SDS011;10908;50.690;4.400;2023-02-28T07:55:09;8.60;;;5.05;;
21492;SDS011;10908;50.690;4.400;2023-02-28T07:57:35;10.93;;;5.53;;
21492;SDS011;10908;50.690;4.400;2023-02-28T08:00:01;8.15;;;4.57;;
21492;SDS011;10908;50.690;4.400;2023-02-28T08:02:31;12.55;;;5.43;;
21492;SDS011;10908;50.690;4.400;2023-02-28T08:04:57;10.65;;;5.22;;
21492;SDS011;10908;50.690;4.400;2023-02-28T08:07:22;12.57;;;5.50;;
21492;SDS011;10908;50.690;4.400;2023-02-28T08:09:48;11.10;;;5.75;;
21492;SDS011;10908;50.690;4.400;2023-02-28T08:12:13;11.32;;;5.82;;
21492;SDS011;10908;50.690;4.400;2023-02-28T08:14:39;12.93;;;5.65;;
21492;SDS011;10908;50.690;4.400;2023-02-28T08:17:05;10.30;;;5.57;;
21492;SDS011;10908;50.690;4.400;2023-02-28T08:19:31;12.57;;;6.10;;
21492;SDS011;10908;50.690;4.400;2023-02-28T08:21:57;9.93;;;4.90;;
21492;SDS011;10908;50.690;4.400;2023-02-28T08:24:23;12.95;;;5.93;;
21492;SDS011;10908;50.690;4.400;2023-02-28T08:26:49;10.13;;;5.55;;
21492;SDS011;10908;50.690;4.400;2023-02-28T08:29:15;12.27;;;6.20;;
21492;SDS011;10908;50.690;4.400;2023-02-28T08:31:41;13.45;;;6.00;;
21492;SDS011;10908;50.690;4.400;2023-02-28T08:34:07;11.82;;;5.50;;
21492;SDS011;10908;50.690;4.400;2023-02-28T08:36:35;11.57;;;5.88;;
21492;SDS011;10908;50.690;4.400;2023-02-28T08:39:01;12.10;;;5.90;;
21492;SDS011;10908;50.690;4.400;2023-02-28T08:41:27;9.02;;;5.28;;
21492;SDS011;10908;50.690;4.400;2023-02-28T08:43:53;10.63;;;5.82;;
21492;SDS011;10908;50.690;4.400;2023-02-28T08:46:19;12.57;;;5.63;;
21492;SDS011;10908;50.690;4.400;2023-02-28T08:48:44;9.98;;;5.57;;
21492;SDS011;10908;50.690;4.400;2023-02-28T08:51:12;11.82;;;5.72;;
21492;SDS011;10908;50.690;4.400;2023-02-28T08:53:47;11.68;;;5.75;;
21492;SDS011;10908;50.690;4.400;2023-02-28T08:56:14;12.55;;;5.68;;
21492;SDS011;10908;50.690;4.400;2023-02-28T08:58:43;12.40;;;5.57;;
21492;SDS011;10908;50.690;4.400;2023-02-28T09:01:13;12.57;;;5.68;;
21492;SDS011;10908;50.690;4.400;2023-02-28T09:03:49;11.85;;;5.47;;
21492;SDS011;10908;50.690;4.400;2023-02-28T09:06:17;11.57;;;5.95;;
21492;SDS011;10908;50.690;4.400;2023-02-28T09:08:44;10.32;;;5.18;;
21492;SDS011;10908;50.690;4.400;2023-02-28T09:11:10;9.20;;;5.10;;
21492;SDS011;10908;50.690;4.400;2023-02-28T09:13:36;12.65;;;4.85;;
21492;SDS011;10908;50.690;4.400;2023-02-28T09:16:02;11.45;;;4.80;;
21492;SDS011;10908;50.690;4.400;2023-02-28T09:18:30;12.30;;;5.30;;
21492;SDS011;10908;50.690;4.400;2023-02-28T09:20:56;10.25;;;4.80;;
21492;SDS011;10908;50.690;4.400;2023-02-28T09:23:23;8.75;;;4.80;;
21492;SDS011;10908;50.690;4.400;2023-02-28T09:25:53;10.10;;;4.47;;
21492;SDS011;10908;50.690;4.400;2023-02-28T09:28:19;9.68;;;4.65;;
21492;SDS011;10908;50.690;4.400;2023-02-28T09:30:46;7.85;;;4.13;;
21492;SDS011;10908;50.690;4.400;2023-02-28T09:33:14;7.85;;;3.67;;
21492;SDS011;10908;50.690;4.400;2023-02-28T09:35:41;10.57;;;3.80;;
21492;SDS011;10908;50.690;4.400;2023-02-28T09:38:07;7.38;;;3.85;;
21492;SDS011;10908;50.690;4.400;2023-02-28T09:41:17;6.93;;;3.50;;
21492;SDS011;10908;50.690;4.400;2023-02-28T09:43:25;8.50;;;3.47;;
21492;SDS011;10908;50.690;4.400;2023-02-28T09:45:55;8.77;;;3.30;;
21492;SDS011;10908;50.690;4.400;2023-02-28T09:48:41;6.03;;;3.08;;
21492;SDS011;10908;50.690;4.400;2023-02-28T09:54:18;6.68;;;3.13;;
21492;SDS011;10908;50.690;4.400;2023-02-28T09:57:11;6.57;;;2.97;;
21492;SDS011;10908;50.690;4.400;2023-02-28T10:02:51;7.63;;;3.15;;
21492;SDS011;10908;50.690;4.400;2023-02-28T10:05:27;9.18;;;3.40;;
21492;SDS011;10908;50.690;4.400;2023-02-28T10:08:10;6.32;;;2.90;;
21492;SDS011;10908;50.690;4.400;2023-02-28T10:10:53;6.75;;;2.40;;
21492;SDS011;10908;50.690;4.400;2023-02-28T10:13:24;7.43;;;2.47;;
21492;SDS011;10908;50.690;4.400;2023-02-28T10:16:02;7.60;;;2.65;;
21492;SDS011;10908;50.690;4.400;2023-02-28T10:18:36;6.25;;;2.55;;
21492;SDS011;10908;50.690;4.400;2023-02-28T10:21:13;5.22;;;2.30;;
21492;SDS011;10908;50.690;4.400;2023-02-28T10:23:48;7.75;;;2.78;;
21492;SDS011;10908;50.690;4.400;2023-02-28T10:26:20;7.75;;;2.85;;
21492;SDS011;10908;50.690;4.400;2023-02-28T10:28:46;11.88;;;3.00;;
21492;SDS011;10908;50.690;4.400;2023-02-28T10:31:14;6.60;;;2.40;;
21492;SDS011;10908;50.690;4.400;2023-02-28T10:33:43;6.38;;;2.60;;
21492;SDS011;10908;50.690;4.400;2023-02-28T10:36:18;9.88;;;2.40;;
21492;SDS011;10908;50.690;4.400;2023-02-28T10:38:45;7.57;;;2.90;;
21492;SDS011;10908;50.690;4.400;2023-02-28T10:41:18;5.40;;;2.38;;
21492;SDS011;10908;50.690;4.400;2023-02-28T10:46:57;5.43;;;1.92;;
21492;SDS011;10908;50.690;4.400;2023-02-28T10:49:24;4.13;;;1.83;;
21492;SDS011;10908;50.690;4.400;2023-02-28T10:51:57;8.30;;;2.33;;
21492;SDS011;10908;50.690;4.400;2023-02-28T10:54:27;4.53;;;2.10;;
21492;SDS011;10908;50.690;4.400;2023-02-28T10:57:16;4.20;;;1.85;;
21492;SDS011;10908;50.690;4.400;2023-02-28T10:59:45;9.23;;;2.00;;
21492;SDS011;10908;50.690;4.400;2023-02-28T11:02:53;8.65;;;3.15;;
21492;SDS011;10908;50.690;4.400;2023-02-28T11:05:02;4.55;;;2.17;;
21492;SDS011;10908;50.690;4.400;2023-02-28T11:07:54;12.23;;;2.72;;
21492;SDS011;10908;50.690;4.400;2023-02-28T11:10:36;5.05;;;1.92;;
21492;SDS011;10908;50.690;4.400;2023-02-28T11:13:02;6.38;;;2.08;;
21492;SDS011;10908;50.690;4.400;2023-02-28T11:15:37;6.25;;;2.40;;
21492;SDS011;10908;50.690;4.400;2023-02-28T11:20:47;6.00;;;2.45;;
21492;SDS011;10908;50.690;4.400;2023-02-28T11:23:15;21.90;;;3.55;;
21492;SDS011;10908;50.690;4.400;2023-02-28T11:25:46;9.02;;;2.70;;
21492;SDS011;10908;50.690;4.400;2023-02-28T11:31:01;6.55;;;2.15;;
21492;SDS011;10908;50.690;4.400;2023-02-28T11:33:43;4.35;;;2.20;;
21492;SDS011;10908;50.690;4.400;2023-02-28T11:36:21;4.53;;;2.08;;
21492;SDS011;10908;50.690;4.400;2023-02-28T11:38:55;6.68;;;2.50;;
21492;SDS011;10908;50.690;4.400;2023-02-28T11:47:17;6.18;;;2.50;;
21492;SDS011;10908;50.690;4.400;2023-02-28T11:55:41;5.80;;;2.50;;
21492;SDS011;10908;50.690;4.400;2023-02-28T11:58:21;7.20;;;2.50;;
21492;SDS011;10908;50.690;4.400;2023-02-28T12:03:27;5.80;;;2.20;;
21492;SDS011;10908;50.690;4.400;2023-02-28T12:06:16;4.80;;;2.20;;
21492;SDS011;10908;50.690;4.400;2023-02-28T12:11:45;4.85;;;2.20;;
21492;SDS011;10908;50.690;4.400;2023-02-28T12:27:27;5.03;;;2.28;;
21492;SDS011;10908;50.690;4.400;2023-02-28T12:29:59;4.80;;;2.65;;
21492;SDS011;10908;50.690;4.400;2023-02-28T12:37:38;4.78;;;2.38;;
21492;SDS011;10908;50.690;4.400;2023-02-28T12:40:15;6.55;;;2.50;;
21492;SDS011;10908;50.690;4.400;2023-02-28T12:42:46;4.80;;;2.50;;
21492;SDS011;10908;50.690;4.400;2023-02-28T12:45:24;5.82;;;2.97;;
21492;SDS011;10908;50.690;4.400;2023-02-28T12:48:06;6.13;;;2.60;;
21492;SDS011;10908;50.690;4.400;2023-02-28T12:50:35;6.35;;;2.97;;
21492;SDS011;10908;50.690;4.400;2023-02-28T12:55:48;4.93;;;2.70;;
21492;SDS011;10908;50.690;4.400;2023-02-28T13:11:46;6.57;;;2.60;;
21492;SDS011;10908;50.690;4.400;2023-02-28T13:17:01;5.93;;;2.90;;
21492;SDS011;10908;50.690;4.400;2023-02-28T13:19:29;6.68;;;3.00;;
21492;SDS011;10908;50.690;4.400;2023-02-28T13:21:57;5.55;;;2.70;;
21492;SDS011;10908;50.690;4.400;2023-02-28T13:27:21;6.68;;;3.25;;
21492;SDS011;10908;50.690;4.400;2023-02-28T13:29:58;6.38;;;2.80;;
21492;SDS011;10908;50.690;4.400;2023-02-28T13:50:26;7.38;;;3.00;;
21492;SDS011;10908;50.690;4.400;2023-02-28T13:55:49;5.30;;;2.72;;
21492;SDS011;10908;50.690;4.400;2023-02-28T13:58:41;5.07;;;2.70;;
21492;SDS011;10908;50.690;4.400;2023-02-28T14:03:51;5.60;;;2.30;;
21492;SDS011;10908;50.690;4.400;2023-02-28T14:09:02;4.80;;;2.15;;
21492;SDS011;10908;50.690;4.400;2023-02-28T14:11:41;5.25;;;2.38;;
21492;SDS011;10908;50.690;4.400;2023-02-28T14:14:07;6.93;;;2.42;;
21492;SDS011;10908;50.690;4.400;2023-02-28T14:16:54;5.43;;;2.60;;
21492;SDS011;10908;50.690;4.400;2023-02-28T14:19:25;6.05;;;2.70;;
21492;SDS011;10908;50.690;4.400;2023-02-28T14:22:03;9.70;;;2.47;;
21492;SDS011;10908;50.690;4.400;2023-02-28T14:24:55;6.45;;;2.22;;
21492;SDS011;10908;50.690;4.400;2023-02-28T14:27:32;5.95;;;2.40;;
21492;SDS011;10908;50.690;4.400;2023-02-28T14:33:01;5.60;;;2.38;;
21492;SDS011;10908;50.690;4.400;2023-02-28T14:35:56;5.78;;;2.58;;
21492;SDS011;10908;50.690;4.400;2023-02-28T14:41:32;4.38;;;2.20;;
21492;SDS011;10908;50.690;4.400;2023-02-28T14:44:02;6.78;;;2.72;;
21492;SDS011;10908;50.690;4.400;2023-02-28T14:46:39;5.90;;;2.72;;
21492;SDS011;10908;50.690;4.400;2023-02-28T14:49:07;4.78;;;2.30;;
21492;SDS011;10908;50.690;4.400;2023-02-28T14:51:45;4.70;;;2.25;;
21492;SDS011;10908;50.690;4.400;2023-02-28T14:54:15;6.50;;;2.78;;
21492;SDS011;10908;50.690;4.400;2023-02-28T14:56:43;7.03;;;2.75;;
21492;SDS011;10908;50.690;4.400;2023-02-28T14:59:23;9.05;;;2.97;;
21492;SDS011;10908;50.690;4.400;2023-02-28T15:01:51;5.55;;;2.80;;
21492;SDS011;10908;50.690;4.400;2023-02-28T15:04:26;5.40;;;2.72;;
21492;SDS011;10908;50.690;4.400;2023-02-28T15:07:12;4.90;;;2.45;;
21492;SDS011;10908;50.690;4.400;2023-02-28T15:09:39;5.97;;;2.78;;
21492;SDS011;10908;50.690;4.400;2023-02-28T15:12:06;7.93;;;2.63;;
21492;SDS011;10908;50.690;4.400;2023-02-28T15:14:42;5.97;;;2.85;;
21492;SDS011;10908;50.690;4.400;2023-02-28T15:17:09;5.25;;;2.70;;
21492;SDS011;10908;50.690;4.400;2023-02-28T15:19:46;5.78;;;2.83;;
21492;SDS011;10908;50.690;4.400;2023-02-28T15:22:16;6.13;;;2.85;;
21492;SDS011;10908;50.690;4.400;2023-02-28T15:24:48;8.27;;;2.97;;
21492;SDS011;10908;50.690;4.400;2023-02-28T15:27:23;6.70;;;2.83;;
21492;SDS011;10908;50.690;4.400;2023-02-28T15:29:56;5.35;;;2.70;;
21492;SDS011;10908;50.690;4.400;2023-02-28T15:32:26;5.88;;;2.97;;
21492;SDS011;10908;50.690;4.400;2023-02-28T15:34:54;5.45;;;3.00;;
21492;SDS011;10908;50.690;4.400;2023-02-28T15:37:40;6.45;;;2.85;;
21492;SDS011;10908;50.690;4.400;2023-02-28T15:40:13;5.22;;;2.67;;
21492;SDS011;10908;50.690;4.400;2023-02-28T15:55:36;7.15;;;3.40;;
21492;SDS011;10908;50.690;4.400;2023-02-28T15:58:02;6.53;;;3.28;;
21492;SDS011;10908;50.690;4.400;2023-02-28T16:00:28;5.50;;;3.00;;
21492;SDS011;10908;50.690;4.400;2023-02-28T16:02:57;7.10;;;3.10;;
21492;SDS011;10908;50.690;4.400;2023-02-28T16:05:25;6.32;;;3.42;;
21492;SDS011;10908;50.690;4.400;2023-02-28T16:07:59;7.45;;;3.92;;
21492;SDS011;10908;50.690;4.400;2023-02-28T16:10:37;9.45;;;3.38;;
21492;SDS011;10908;50.690;4.400;2023-02-28T16:13:02;6.55;;;3.40;;
21492;SDS011;10908;50.690;4.400;2023-02-28T16:15:29;6.35;;;3.35;;
21492;SDS011;10908;50.690;4.400;2023-02-28T16:17:58;7.97;;;3.88;;
21492;SDS011;10908;50.690;4.400;2023-02-28T16:20:25;8.15;;;3.50;;
21492;SDS011;10908;50.690;4.400;2023-02-28T16:22:55;7.45;;;3.60;;
21492;SDS011;10908;50.690;4.400;2023-02-28T16:25:26;6.30;;;3.70;;
21492;SDS011;10908;50.690;4.400;2023-02-28T16:27:59;7.30;;;3.80;;
21492;SDS011;10908;50.690;4.400;2023-02-28T16:30:26;7.53;;;3.50;;
21492;SDS011;10908;50.690;4.400;2023-02-28T16:32:54;7.60;;;3.40;;
21492;SDS011;10908;50.690;4.400;2023-02-28T16:35:20;8.02;;;3.80;;
21492;SDS011;10908;50.690;4.400;2023-02-28T16:37:47;8.95;;;3.88;;
21492;SDS011;10908;50.690;4.400;2023-02-28T16:40:13;6.88;;;3.42;;
21492;SDS011;10908;50.690;4.400;2023-02-28T16:42:45;6.35;;;3.67;;
21492;SDS011;10908;50.690;4.400;2023-02-28T16:45:16;7.68;;;3.60;;
21492;SDS011;10908;50.690;4.400;2023-02-28T16:47:44;5.55;;;3.20;;
21492;SDS011;10908;50.690;4.400;2023-02-28T16:50:14;7.60;;;3.53;;
21492;SDS011;10908;50.690;4.400;2023-02-28T16:52:42;8.02;;;3.60;;
21492;SDS011;10908;50.690;4.400;2023-02-28T16:55:07;7.63;;;3.67;;
21492;SDS011;10908;50.690;4.400;2023-02-28T16:57:33;8.13;;;3.45;;
21492;SDS011;10908;50.690;4.400;2023-02-28T16:59:59;7.28;;;3.58;;
21492;SDS011;10908;50.690;4.400;2023-02-28T17:02:24;6.35;;;3.20;;
21492;SDS011;10908;50.690;4.400;2023-02-28T17:04:50;8.23;;;3.55;;
21492;SDS011;10908;50.690;4.400;2023-02-28T17:07:16;8.55;;;3.47;;
21492;SDS011;10908;50.690;4.400;2023-02-28T17:09:42;6.53;;;3.03;;
21492;SDS011;10908;50.690;4.400;2023-02-28T17:12:08;7.72;;;3.85;;
21492;SDS011;10908;50.690;4.400;2023-02-28T17:14:34;8.05;;;3.63;;
21492;SDS011;10908;50.690;4.400;2023-02-28T17:17:00;10.02;;;4.03;;
21492;SDS011;10908;50.690;4.400;2023-02-28T17:19:26;7.82;;;3.58;;
21492;SDS011;10908;50.690;4.400;2023-02-28T17:21:53;7.72;;;3.70;;
21492;SDS011;10908;50.690;4.400;2023-02-28T17:24:19;8.55;;;3.30;;
21492;SDS011;10908;50.690;4.400;2023-02-28T17:26:45;7.75;;;3.55;;
21492;SDS011;10908;50.690;4.400;2023-02-28T17:29:13;8.30;;;4.13;;